Time;durP1;ratioP1;P1;durP2;ratioP2;P2;SDS_P1;SDS_P2;PMS_P1;PMS_P2;Temp;Humidity;BMP_temperature;BMP_pressure;BME280_temperature;BME280_humidity;BME280_pressure;Samples;Min_cycle;Max_cycle;Signal;HPM_P1;HPM_P2
2021/06/20 00:01:48;;;;;;;2.70;2.00;;;28.80;86.70;;;;;;5111366;28;20439;-69
2021/06/20 00:04:16;;;;;;;3.90;2.30;;;28.80;87.30;;;;;;5111663;28;20443;-69
2021/06/20 00:06:48;;;;;;;2.27;1.80;;;28.70;87.90;;;;;;5111633;28;20447;-69
2021/06/20 00:09:15;;;;;;;3.13;2.10;;;28.70;88.70;;;;;;5114702;28;20465;-69
2021/06/20 00:11:44;;;;;;;4.17;2.20;;;28.70;89.40;;;;;;5124473;28;20470;-69
2021/06/20 00:14:13;;;;;;;1.55;1.30;;;28.60;90.00;;;;;;5110782;28;20768;-69
2021/06/20 00:16:41;;;;;;;2.37;1.87;;;28.60;90.10;;;;;;5110635;28;20211;-69
2021/06/20 00:19:09;;;;;;;3.40;1.87;;;28.60;90.50;;;;;;5127239;27;20445;-69
2021/06/20 00:21:37;;;;;;;3.47;2.50;;;28.50;90.90;;;;;;5129171;27;20486;-69
2021/06/20 00:24:05;;;;;;;4.40;2.50;;;28.50;91.40;;;;;;5119685;27;20449;-69
2021/06/20 00:26:32;;;;;;;4.90;2.03;;;28.50;91.20;;;;;;5135446;27;20452;-69
2021/06/20 00:28:58;;;;;;;2.63;2.33;;;28.40;91.40;;;;;;5134635;27;20952;-69
2021/06/20 00:31:27;;;;;;;4.80;1.63;;;28.40;91.70;;;;;;5125594;27;20445;-69
2021/06/20 00:33:53;;;;;;;3.70;2.30;;;28.40;91.80;;;;;;5135126;27;20860;-69
2021/06/20 00:36:20;;;;;;;3.20;2.00;;;28.40;92.10;;;;;;5135481;27;20446;-70
2021/06/20 00:38:47;;;;;;;4.33;2.10;;;28.30;92.20;;;;;;5134686;27;20441;-69
2021/06/20 00:41:13;;;;;;;3.90;2.70;;;28.30;92.40;;;;;;5130747;27;20474;-69
2021/06/20 00:43:40;;;;;;;3.17;2.43;;;28.30;92.60;;;;;;5130718;27;20443;-69
2021/06/20 00:46:09;;;;;;;3.40;2.50;;;28.30;92.80;;;;;;5114802;28;20468;-70
2021/06/20 00:48:37;;;;;;;2.80;2.27;;;28.30;92.90;;;;;;5125318;27;20446;-69
2021/06/20 00:51:04;;;;;;;4.73;2.43;;;28.20;93.10;;;;;;5133071;27;20442;-69
2021/06/20 00:53:31;;;;;;;3.33;2.10;;;28.20;93.20;;;;;;5119944;27;20446;-69
2021/06/20 00:55:58;;;;;;;3.83;2.53;;;28.20;93.40;;;;;;5114272;28;20641;-69
2021/06/20 00:58:25;;;;;;;7.70;2.43;;;28.10;93.60;;;;;;5113560;28;20485;-69
2021/06/20 01:00:52;;;;;;;2.80;2.40;;;28.10;93.80;;;;;;5114048;28;20485;-70
2021/06/20 01:03:18;;;;;;;2.83;2.60;;;28.10;94.20;;;;;;5117711;27;20449;-69
2021/06/20 01:05:47;;;;;;;2.80;2.50;;;28.10;94.40;;;;;;5116217;27;20454;-69
2021/06/20 01:08:15;;;;;;;3.53;2.17;;;28.00;94.70;;;;;;5117089;27;20465;-69
2021/06/20 01:10:42;;;;;;;4.40;2.10;;;28.00;95.00;;;;;;5114093;27;20786;-69
2021/06/20 01:13:11;;;;;;;2.33;2.00;;;27.90;95.20;;;;;;5114516;28;20438;-69
2021/06/20 01:15:39;;;;;;;3.70;2.40;;;27.90;95.50;;;;;;5114409;27;20441;-69
2021/06/20 01:18:06;;;;;;;3.20;2.23;;;27.90;95.70;;;;;;5114580;27;20811;-69
2021/06/20 01:20:33;;;;;;;2.50;2.30;;;27.90;96.00;;;;;;5114175;28;20484;-69
2021/06/20 01:23:01;;;;;;;3.27;2.37;;;27.80;96.20;;;;;;5117156;27;20465;-72
2021/06/20 01:25:29;;;;;;;2.80;2.50;;;27.80;96.50;;;;;;5134475;27;20444;-70
2021/06/20 01:27:58;;;;;;;3.50;2.60;;;27.80;96.70;;;;;;5134236;27;20448;-70
2021/06/20 01:30:27;;;;;;;3.00;2.30;;;27.70;96.90;;;;;;5116999;27;20204;-69
2021/06/20 01:32:55;;;;;;;3.40;2.57;;;27.70;97.20;;;;;;5113984;27;20476;-69
2021/06/20 01:35:22;;;;;;;4.20;2.60;;;27.70;97.40;;;;;;5115307;27;20443;-70
2021/06/20 01:37:50;;;;;;;2.73;2.53;;;27.60;97.60;;;;;;5113643;27;20451;-69
2021/06/20 01:40:19;;;;;;;3.20;2.67;;;27.60;97.90;;;;;;5117634;27;20474;-69
2021/06/20 01:42:46;;;;;;;4.73;2.53;;;27.60;98.10;;;;;;5127305;27;20453;-69
2021/06/20 01:45:16;;;;;;;3.60;2.57;;;27.60;98.40;;;;;;5125192;27;21058;-70
2021/06/20 01:47:43;;;;;;;3.03;2.50;;;27.60;98.70;;;;;;5129982;27;20452;-70
2021/06/20 01:50:12;;;;;;;2.43;2.23;;;27.50;98.90;;;;;;5134141;27;20442;-70
2021/06/20 01:52:39;;;;;;;2.90;2.60;;;27.50;99.50;;;;;;5132717;27;20455;-69
2021/06/20 01:55:08;;;;;;;4.35;2.83;;;27.50;99.30;;;;;;5132636;27;20473;-70
2021/06/20 01:57:38;;;;;;;4.03;2.40;;;27.40;99.60;;;;;;5133076;27;20228;-70
2021/06/20 02:00:08;;;;;;;4.80;2.47;;;27.40;99.90;;;;;;5119465;27;21202;-69
2021/06/20 02:02:34;;;;;;;2.85;2.53;;;27.30;99.90;;;;;;5116993;27;20450;-70
2021/06/20 02:05:01;;;;;;;4.40;2.30;;;27.30;99.90;;;;;;5128956;27;20201;-69
2021/06/20 02:07:28;;;;;;;3.05;2.60;;;27.30;99.90;;;;;;5112677;28;20919;-70
2021/06/20 02:09:56;;;;;;;5.30;2.33;;;27.30;99.90;;;;;;5113668;27;20450;-69
2021/06/20 02:12:25;;;;;;;2.67;2.47;;;27.20;99.90;;;;;;5112648;27;20774;-70
2021/06/20 02:14:53;;;;;;;4.30;3.03;;;27.20;99.90;;;;;;5117390;27;20793;-69
2021/06/20 02:17:25;;;;;;;4.37;2.50;;;27.20;99.90;;;;;;5133265;27;20464;-70
2021/06/20 02:19:53;;;;;;;2.63;2.13;;;27.20;99.90;;;;;;5131405;27;20553;-69
2021/06/20 02:22:20;;;;;;;4.93;2.80;;;27.10;99.90;;;;;;5132886;27;20499;-69
2021/06/20 02:24:48;;;;;;;4.20;2.20;;;27.10;99.90;;;;;;5119485;27;20459;-69
2021/06/20 02:27:15;;;;;;;2.23;1.50;;;27.10;99.90;;;;;;5132941;27;20445;-69
2021/06/20 02:29:43;;;;;;;5.47;3.27;;;27.10;99.90;;;;;;5132567;27;20569;-69
2021/06/20 02:32:12;;;;;;;3.63;2.43;;;27.00;99.90;;;;;;5133021;27;20438;-69
2021/06/20 02:34:40;;;;;;;2.43;2.13;;;27.00;99.90;;;;;;5125417;27;20797;-69
2021/06/20 02:37:08;;;;;;;4.33;2.03;;;27.00;99.90;;;;;;5112396;28;20971;-68
2021/06/20 02:39:35;;;;;;;2.90;2.60;;;26.90;99.90;;;;;;5112574;28;20452;-70
2021/06/20 02:42:03;;;;;;;4.23;2.40;;;26.90;99.90;;;;;;5111783;27;20621;-70
2021/06/20 02:44:30;;;;;;;2.10;1.90;;;26.90;99.90;;;;;;5112788;28;20475;-69
2021/06/20 02:46:59;;;;;;;5.40;1.60;;;26.90;99.90;;;;;;5112628;28;20438;-69
2021/06/20 02:49:28;;;;;;;2.87;2.20;;;26.80;99.90;;;;;;5126451;27;20780;-70
2021/06/20 02:51:54;;;;;;;4.10;2.07;;;26.80;99.90;;;;;;5132994;27;20789;-69
2021/06/20 02:54:22;;;;;;;4.83;1.73;;;26.80;99.90;;;;;;5129092;27;20461;-69
2021/06/20 02:56:49;;;;;;;3.75;2.15;;;26.80;99.90;;;;;;5132362;27;21132;-69
2021/06/20 02:59:16;;;;;;;2.97;2.67;;;26.70;99.90;;;;;;5132625;27;20207;-70
2021/06/20 03:01:42;;;;;;;2.10;1.37;;;26.70;99.90;;;;;;5119872;27;20215;-70
2021/06/20 03:04:10;;;;;;;2.27;1.53;;;26.70;99.90;;;;;;5112235;28;20453;-69
2021/06/20 03:06:38;;;;;;;2.93;2.63;;;26.70;99.90;;;;;;5126362;27;20445;-69
2021/06/20 03:09:05;;;;;;;3.23;1.70;;;26.60;99.90;;;;;;5111360;27;20473;-69
2021/06/20 03:11:35;;;;;;;1.73;1.60;;;26.60;99.90;;;;;;5111683;28;20441;-69
2021/06/20 03:14:02;;;;;;;3.30;2.00;;;26.60;99.90;;;;;;5111821;28;20495;-69
2021/06/20 03:16:28;;;;;;;1.50;1.13;;;26.60;99.90;;;;;;5120780;27;20471;-69
2021/06/20 03:18:55;;;;;;;2.73;1.57;;;26.60;99.90;;;;;;5111635;28;20445;-69
2021/06/20 03:21:22;;;;;;;4.97;1.63;;;26.60;99.90;;;;;;5111614;28;20465;-69
2021/06/20 03:23:50;;;;;;;1.90;1.50;;;26.50;99.90;;;;;;5115355;27;20443;-69
2021/06/20 03:26:17;;;;;;;2.63;2.03;;;26.50;99.90;;;;;;5111267;28;20503;-69
2021/06/20 03:28:44;;;;;;;1.90;1.27;;;26.50;99.90;;;;;;5111400;27;20462;-69
2021/06/20 03:31:10;;;;;;;1.93;1.30;;;26.40;99.90;;;;;;5111372;27;20455;-69
2021/06/20 03:33:37;;;;;;;2.30;1.20;;;26.40;99.90;;;;;;5111324;28;20443;-69
2021/06/20 03:36:04;;;;;;;3.43;2.23;;;26.40;99.90;;;;;;5121400;27;20457;-69
2021/06/20 03:38:31;;;;;;;2.75;1.40;;;26.30;99.90;;;;;;5117590;27;20457;-69
2021/06/20 03:41:00;;;;;;;3.23;1.50;;;26.30;99.90;;;;;;5121245;27;20217;-68
2021/06/20 03:43:26;;;;;;;3.40;1.77;;;26.30;99.90;;;;;;5122130;27;21209;-68
2021/06/20 03:45:53;;;;;;;2.60;1.37;;;26.30;99.90;;;;;;5111547;28;20776;-69
2021/06/20 03:48:20;;;;;;;3.10;1.43;;;26.30;99.90;;;;;;5113653;28;20830;-69
2021/06/20 03:50:47;;;;;;;2.03;1.47;;;26.30;99.90;;;;;;5118846;27;20908;-69
2021/06/20 03:53:14;;;;;;;2.47;1.20;;;26.20;99.90;;;;;;5119778;28;20925;-69
2021/06/20 03:55:41;;;;;;;2.03;1.33;;;26.20;99.90;;;;;;5131877;27;20445;-69
2021/06/20 03:58:09;;;;;;;2.93;1.67;;;26.20;99.90;;;;;;5131130;27;20481;-69
2021/06/20 04:00:38;;;;;;;1.50;1.27;;;26.20;99.90;;;;;;5131548;28;20439;-69
2021/06/20 04:03:06;;;;;;;3.77;1.77;;;26.10;99.90;;;;;;5120487;28;20467;-69
2021/06/20 04:05:33;;;;;;;3.85;1.67;;;26.10;99.90;;;;;;5131557;28;20437;-69
2021/06/20 04:08:01;;;;;;;2.47;1.67;;;26.10;99.90;;;;;;5129508;28;20546;-68
2021/06/20 04:10:28;;;;;;;1.93;1.40;;;26.10;99.90;;;;;;5111299;27;20953;-69
2021/06/20 04:12:55;;;;;;;1.40;1.30;;;26.10;99.90;;;;;;5111578;28;20466;-69
2021/06/20 04:15:24;;;;;;;2.37;1.20;;;26.10;99.90;;;;;;5111407;28;20465;-70
2021/06/20 04:17:51;;;;;;;1.70;1.60;;;26.00;99.90;;;;;;5126639;28;20459;-68
2021/06/20 04:20:18;;;;;;;2.57;1.70;;;26.00;99.90;;;;;;5131602;28;20776;-69
2021/06/20 04:22:45;;;;;;;2.07;1.60;;;26.00;99.90;;;;;;5118937;28;20512;-69
2021/06/20 04:25:14;;;;;;;2.00;1.25;;;26.00;99.90;;;;;;5111211;28;20468;-69
2021/06/20 04:27:41;;;;;;;1.40;1.20;;;26.00;99.90;;;;;;5126041;28;20194;-69
2021/06/20 04:30:10;;;;;;;1.65;1.33;;;26.00;99.90;;;;;;5112779;28;20497;-69
2021/06/20 04:32:39;;;;;;;1.40;1.30;;;25.90;99.90;;;;;;5111096;28;20204;-69
2021/06/20 04:35:06;;;;;;;4.53;1.70;;;25.90;99.90;;;;;;5110901;28;20454;-69
2021/06/20 04:37:33;;;;;;;2.17;1.85;;;25.90;99.90;;;;;;5111057;28;20477;-69
2021/06/20 04:40:00;;;;;;;1.57;1.47;;;25.90;99.90;;;;;;5110635;28;20207;-69
2021/06/20 04:42:32;;;;;;;5.80;1.88;;;25.90;99.90;;;;;;5110973;28;20485;-69
2021/06/20 04:44:59;;;;;;;2.03;1.80;;;25.90;99.90;;;;;;5111696;28;20189;-69
2021/06/20 04:47:27;;;;;;;3.53;2.30;;;25.90;99.90;;;;;;5110897;28;20914;-69
2021/06/20 04:49:55;;;;;;;2.53;1.70;;;25.90;99.90;;;;;;5117967;28;20468;-69
2021/06/20 04:52:22;;;;;;;3.33;1.90;;;25.80;99.90;;;;;;5110568;28;20904;-69
2021/06/20 04:54:52;;;;;;;2.57;1.57;;;25.80;99.90;;;;;;5117930;28;20459;-69
2021/06/20 04:57:20;;;;;;;4.90;1.77;;;25.80;99.90;;;;;;5129627;28;20564;-69
2021/06/20 04:59:47;;;;;;;5.87;3.03;;;25.80;99.90;;;;;;5129769;28;20453;-69
2021/06/20 05:02:14;;;;;;;4.07;2.03;;;25.70;99.90;;;;;;5131044;28;20477;-68
2021/06/20 05:04:41;;;;;;;3.23;1.70;;;25.70;99.90;;;;;;5125211;28;20454;-69
2021/06/20 05:07:10;;;;;;;2.20;2.00;;;25.70;99.90;;;;;;5113780;28;20442;-69
2021/06/20 05:09:37;;;;;;;4.83;1.97;;;25.70;99.90;;;;;;5119682;27;20455;-69
2021/06/20 05:12:06;;;;;;;3.27;1.87;;;25.70;99.90;;;;;;5117270;27;20469;-69
2021/06/20 05:14:32;;;;;;;5.37;2.80;;;25.60;99.90;;;;;;5114048;27;20461;-69
2021/06/20 05:16:59;;;;;;;4.20;2.60;;;25.60;99.90;;;;;;5123511;27;20441;-69
2021/06/20 05:19:26;;;;;;;2.27;2.10;;;25.60;99.90;;;;;;5133806;27;20449;-68
2021/06/20 05:21:53;;;;;;;3.15;1.95;;;25.60;99.90;;;;;;5113545;28;21021;-69
2021/06/20 05:24:21;;;;;;;3.20;2.20;;;25.60;99.90;;;;;;5113532;27;20196;-69
2021/06/20 05:26:47;;;;;;;1.60;1.50;;;25.50;99.90;;;;;;5113980;27;20467;-69
2021/06/20 05:29:14;;;;;;;3.50;1.97;;;25.60;99.90;;;;;;5113512;28;20938;-69
2021/06/20 05:31:41;;;;;;;5.83;2.13;;;25.70;99.90;;;;;;5113732;28;20434;-69
2021/06/20 05:34:08;;;;;;;3.07;1.93;;;25.80;99.90;;;;;;5124212;27;20442;-69
2021/06/20 05:36:35;;;;;;;1.90;1.63;;;25.90;99.90;;;;;;5131509;27;20441;-69
2021/06/20 05:39:02;;;;;;;3.17;1.90;;;26.00;99.90;;;;;;5133996;27;20560;-70
2021/06/20 05:41:30;;;;;;;7.10;2.77;;;26.10;99.90;;;;;;5132497;27;20472;-69
2021/06/20 05:43:57;;;;;;;2.60;1.80;;;26.20;99.90;;;;;;5117580;27;20464;-70
2021/06/20 05:46:25;;;;;;;6.00;1.80;;;26.10;99.90;;;;;;5113270;28;20438;-69
2021/06/20 05:48:52;;;;;;;2.27;1.80;;;26.00;99.90;;;;;;5113212;28;20837;-69
2021/06/20 05:51:19;;;;;;;3.27;2.00;;;26.00;99.90;;;;;;5113246;27;20470;-69
2021/06/20 05:53:45;;;;;;;1.80;1.70;;;25.90;99.90;;;;;;5114653;27;20442;-69
2021/06/20 05:56:12;;;;;;;3.95;1.95;;;26.00;99.90;;;;;;5123746;27;20439;-69
2021/06/20 05:58:40;;;;;;;4.43;1.55;;;26.10;99.90;;;;;;5125739;27;20228;-69
2021/06/20 06:01:07;;;;;;;2.83;2.53;;;26.30;99.90;;;;;;5125548;27;20637;-69
2021/06/20 06:03:35;;;;;;;1.70;1.60;;;26.50;99.90;;;;;;5120770;27;21053;-69
2021/06/20 06:06:02;;;;;;;5.50;1.57;;;26.60;99.90;;;;;;5113060;28;20967;-69
2021/06/20 06:08:28;;;;;;;2.30;1.60;;;26.80;99.90;;;;;;5112647;27;20466;-69
2021/06/20 06:10:55;;;;;;;2.77;1.53;;;26.80;99.90;;;;;;5112739;28;20435;-69
2021/06/20 06:13:22;;;;;;;1.80;1.50;;;26.70;99.90;;;;;;5112314;28;20445;-69
2021/06/20 06:15:50;;;;;;;3.07;1.77;;;26.50;99.90;;;;;;5114193;27;20466;-69
2021/06/20 06:18:17;;;;;;;4.03;1.97;;;26.30;99.90;;;;;;5112808;27;20481;-69
2021/06/20 06:20:43;;;;;;;2.23;2.00;;;26.20;99.90;;;;;;5112654;28;20440;-69
2021/06/20 06:23:12;;;;;;;3.83;2.00;;;26.10;99.90;;;;;;5112506;28;20489;-69
2021/06/20 06:25:39;;;;;;;2.73;1.70;;;26.00;99.90;;;;;;5124797;27;20455;-69
2021/06/20 06:28:06;;;;;;;2.90;1.90;;;25.90;99.90;;;;;;5112354;28;20779;-69
2021/06/20 06:30:33;;;;;;;2.33;1.73;;;25.80;99.90;;;;;;5112009;27;20469;-69
2021/06/20 06:33:04;;;;;;;1.67;1.57;;;25.80;99.90;;;;;;5112509;28;20442;-69
2021/06/20 06:35:31;;;;;;;2.53;1.73;;;25.70;99.90;;;;;;5112289;28;20443;-70
2021/06/20 06:37:58;;;;;;;2.23;1.50;;;25.70;99.90;;;;;;5112374;27;20472;-70
2021/06/20 06:40:24;;;;;;;1.77;1.67;;;25.80;99.90;;;;;;5117480;27;20443;-69
2021/06/20 06:42:51;;;;;;;2.00;1.60;;;25.90;99.90;;;;;;5128228;27;20484;-69
2021/06/20 06:45:18;;;;;;;2.92;1.88;;;26.00;99.90;;;;;;5112186;27;20438;-69
2021/06/20 06:47:45;;;;;;;3.58;2.28;;;26.10;99.90;;;;;;5129657;27;20203;-70
2021/06/20 06:50:13;;;;;;;2.37;1.87;;;26.10;99.90;;;;;;5115030;27;20198;-69
2021/06/20 06:52:40;;;;;;;2.72;1.60;;;26.20;99.90;;;;;;5117807;27;20456;-69
2021/06/20 06:55:09;;;;;;;2.40;2.13;;;26.30;99.90;;;;;;5118521;27;20205;-69
2021/06/20 06:57:37;;;;;;;2.40;1.60;;;26.40;99.90;;;;;;5112022;28;20479;-69
2021/06/20 07:00:07;;;;;;;3.27;2.30;;;26.40;99.90;;;;;;5113132;27;20557;-69
2021/06/20 07:02:34;;;;;;;2.70;1.87;;;26.40;99.90;;;;;;5111960;28;21097;-69
2021/06/20 07:05:01;;;;;;;3.07;2.10;;;26.30;99.90;;;;;;5120127;27;20444;-69
2021/06/20 07:07:29;;;;;;;3.30;2.43;;;26.30;99.90;;;;;;5132073;27;20442;-70
2021/06/20 07:09:59;;;;;;;3.13;2.10;;;26.40;99.90;;;;;;5124816;27;20491;-70
2021/06/20 07:12:27;;;;;;;1.93;1.80;;;26.30;99.90;;;;;;5111498;28;20464;-69
2021/06/20 07:14:53;;;;;;;3.00;1.87;;;26.40;99.90;;;;;;5111686;28;20799;-69
2021/06/20 07:17:20;;;;;;;2.40;2.20;;;26.50;99.90;;;;;;5114648;27;20896;-69
2021/06/20 07:19:47;;;;;;;2.67;2.47;;;26.50;99.90;;;;;;5132197;27;20444;-69
2021/06/20 07:22:14;;;;;;;2.70;1.93;;;26.60;99.90;;;;;;5131999;27;20474;-69
2021/06/20 07:24:43;;;;;;;2.13;1.70;;;26.70;99.90;;;;;;5121783;27;20446;-69
2021/06/20 07:27:11;;;;;;;2.47;2.27;;;26.80;99.90;;;;;;5111409;27;20205;-69
2021/06/20 07:29:38;;;;;;;2.67;2.00;;;26.90;99.90;;;;;;5111273;28;20460;-70
2021/06/20 07:32:05;;;;;;;3.07;2.43;;;27.10;99.90;;;;;;5112286;27;20457;-69
2021/06/20 07:34:32;;;;;;;3.37;2.60;;;27.20;99.90;;;;;;5112153;28;20443;-69
2021/06/20 07:36:58;;;;;;;2.90;1.77;;;27.40;99.90;;;;;;5112384;28;20442;-69
2021/06/20 07:39:25;;;;;;;4.43;2.07;;;27.50;99.90;;;;;;5114274;27;20465;-68
2021/06/20 07:41:54;;;;;;;2.50;1.90;;;27.60;99.90;;;;;;5114115;27;20442;-69
2021/06/20 07:44:21;;;;;;;2.50;2.30;;;27.50;99.90;;;;;;5111994;27;20946;-69
2021/06/20 07:46:48;;;;;;;3.67;1.92;;;27.50;99.90;;;;;;5112307;28;20446;-68
2021/06/20 07:49:15;;;;;;;5.23;1.73;;;27.60;99.90;;;;;;5111942;28;20205;-68
2021/06/20 07:51:42;;;;;;;2.43;1.73;;;27.60;99.90;;;;;;5112269;28;20447;-68
2021/06/20 07:54:09;;;;;;;2.60;2.40;;;27.70;99.90;;;;;;5113055;28;20512;-69
2021/06/20 07:56:35;;;;;;;2.57;1.60;;;27.70;99.90;;;;;;5117176;27;20462;-69
2021/06/20 07:59:03;;;;;;;2.87;2.00;;;27.80;99.90;;;;;;5111439;28;20481;-68
2021/06/20 08:01:31;;;;;;;3.20;1.80;;;27.80;99.90;;;;;;5111974;28;20453;-68
2021/06/20 08:03:58;;;;;;;2.10;1.90;;;27.80;99.90;;;;;;5111075;28;20269;-69
2021/06/20 08:06:25;;;;;;;2.57;1.60;;;27.80;99.80;;;;;;5109939;28;20454;-68
2021/06/20 08:08:55;;;;;;;5.60;2.07;;;27.90;99.80;;;;;;5110964;28;20439;-68
2021/06/20 08:11:22;;;;;;;2.00;1.83;;;27.90;99.60;;;;;;5111122;28;20463;-69
2021/06/20 08:13:48;;;;;;;2.72;1.80;;;27.90;99.40;;;;;;5111423;28;20447;-69
2021/06/20 08:16:17;;;;;;;2.70;1.87;;;28.00;99.40;;;;;;5120043;28;20629;-72
2021/06/20 08:18:43;;;;;;;2.67;1.90;;;27.90;99.40;;;;;;5130822;28;20434;-73
2021/06/20 08:21:10;;;;;;;1.60;1.47;;;28.00;99.40;;;;;;5128617;28;20438;-72
2021/06/20 08:23:38;;;;;;;2.43;1.37;;;28.10;99.10;;;;;;5127669;28;20554;-73
2021/06/20 08:26:06;;;;;;;2.33;1.57;;;28.10;98.80;;;;;;5127655;28;20438;-69
2021/06/20 08:28:33;;;;;;;2.07;1.87;;;28.20;98.30;;;;;;5127537;28;20434;-69
2021/06/20 08:31:00;;;;;;;1.70;1.60;;;28.30;98.10;;;;;;5129095;28;20444;-69
2021/06/20 08:33:28;;;;;;;1.67;1.43;;;28.30;98.00;;;;;;5128681;28;20774;-69
2021/06/20 08:35:55;;;;;;;2.43;1.50;;;28.30;97.90;;;;;;5131066;28;20441;-68
2021/06/20 08:38:21;;;;;;;1.50;1.40;;;28.30;97.80;;;;;;5117969;28;20468;-69
2021/06/20 08:40:48;;;;;;;3.20;2.00;;;28.20;97.60;;;;;;5120897;27;20798;-69
2021/06/20 08:43:15;;;;;;;1.97;1.77;;;28.20;97.50;;;;;;5129978;27;20560;-69
2021/06/20 08:45:43;;;;;;;2.67;2.00;;;28.20;97.30;;;;;;5121843;27;20462;-69
2021/06/20 08:48:13;;;;;;;1.80;1.60;;;28.20;97.40;;;;;;5122988;27;20454;-68
2021/06/20 08:50:41;;;;;;;3.97;1.70;;;28.30;97.20;;;;;;5114945;28;20446;-69
2021/06/20 08:53:08;;;;;;;2.03;1.70;;;28.30;96.90;;;;;;5130517;27;20466;-69
2021/06/20 08:55:35;;;;;;;2.70;1.70;;;28.40;96.60;;;;;;5134991;27;20437;-69
2021/06/20 08:58:16;;;;;;;1.50;1.40;;;28.40;96.30;;;;;;5123089;27;20486;-69
2021/06/20 09:00:43;;;;;;;1.73;1.50;;;28.40;96.10;;;;;;5134457;27;20489;-69
2021/06/20 09:03:10;;;;;;;1.97;1.40;;;28.40;95.90;;;;;;5128986;27;20485;-69
2021/06/20 09:05:36;;;;;;;1.50;1.30;;;28.40;95.70;;;;;;5121010;27;20430;-69
2021/06/20 09:08:15;;;;;;;2.70;1.70;;;28.30;95.90;;;;;;5132966;27;20454;-68
2021/06/20 09:10:41;;;;;;;1.58;1.38;;;28.30;96.00;;;;;;5114140;27;20485;-69
2021/06/20 09:13:08;;;;;;;2.37;1.90;;;28.30;96.20;;;;;;5114174;27;20209;-69
2021/06/20 09:15:35;;;;;;;2.23;1.47;;;28.30;95.90;;;;;;5115010;27;20458;-69
2021/06/20 09:18:04;;;;;;;1.57;1.40;;;28.40;95.70;;;;;;5115823;27;20478;-69
2021/06/20 09:20:35;;;;;;;2.60;1.80;;;28.40;95.30;;;;;;5132564;27;20458;-69
2021/06/20 09:23:06;;;;;;;8.33;1.57;;;28.40;95.10;;;;;;5133944;27;20477;-69
2021/06/20 09:25:33;;;;;;;1.93;1.50;;;28.40;95.30;;;;;;5132251;27;20938;-69
2021/06/20 09:28:01;;;;;;;1.50;1.37;;;28.50;95.00;;;;;;5118325;27;20466;-69
2021/06/20 09:30:30;;;;;;;1.63;1.53;;;28.60;94.70;;;;;;5131395;27;20446;-69
2021/06/20 09:32:59;;;;;;;2.10;1.90;;;28.60;94.50;;;;;;5132366;27;20779;-69
2021/06/20 09:35:30;;;;;;;1.93;1.50;;;28.70;93.90;;;;;;5113421;27;20938;-69
2021/06/20 09:37:59;;;;;;;1.70;1.30;;;28.80;93.90;;;;;;5113930;27;20443;-69
2021/06/20 09:40:30;;;;;;;2.07;1.50;;;28.80;93.40;;;;;;5130831;27;20498;-70
2021/06/20 09:42:57;;;;;;;1.50;1.20;;;28.90;93.50;;;;;;5133253;27;20813;-69
2021/06/20 09:45:29;;;;;;;1.73;1.38;;;28.90;92.60;;;;;;5112382;27;20489;-69
2021/06/20 09:47:56;;;;;;;2.60;1.30;;;28.90;92.40;;;;;;5117483;27;20209;-69
2021/06/20 09:50:36;;;;;;;3.93;1.40;;;28.90;92.00;;;;;;5112717;27;20470;-69
2021/06/20 09:53:04;;;;;;;1.63;1.20;;;29.00;92.10;;;;;;5116991;27;20478;-69
2021/06/20 09:55:32;;;;;;;2.10;1.23;;;29.00;91.90;;;;;;5134041;27;20444;-68
2021/06/20 09:58:02;;;;;;;1.50;1.30;;;29.00;91.90;;;;;;5119488;27;20489;-69
2021/06/20 10:00:41;;;;;;;2.33;1.40;;;29.00;92.00;;;;;;5126855;27;20527;-69
2021/06/20 10:03:08;;;;;;;3.67;1.43;;;28.90;91.70;;;;;;5129293;27;20462;-69
2021/06/20 10:05:36;;;;;;;1.73;1.20;;;28.90;91.80;;;;;;5128368;27;20439;-69
2021/06/20 10:08:03;;;;;;;2.90;1.40;;;28.90;91.60;;;;;;5113358;27;20458;-69
2021/06/20 10:10:30;;;;;;;1.60;1.50;;;29.00;91.40;;;;;;5113681;28;20434;-69
2021/06/20 10:12:58;;;;;;;1.50;1.10;;;29.00;91.50;;;;;;5114951;27;20280;-69
2021/06/20 10:15:30;;;;;;;1.80;1.20;;;28.90;91.40;;;;;;5113050;28;20215;-69
2021/06/20 10:18:00;;;;;;;2.07;1.30;;;28.90;91.50;;;;;;5127184;27;20458;-69
2021/06/20 10:20:33;;;;;;;1.67;1.35;;;28.90;91.30;;;;;;5133152;27;20487;-68
2021/06/20 10:23:00;;;;;;;1.20;1.10;;;29.00;91.10;;;;;;5116483;27;20835;-69
2021/06/20 10:25:29;;;;;;;2.00;1.30;;;29.00;91.00;;;;;;5120144;27;20464;-69
2021/06/20 10:28:04;;;;;;;1.97;1.30;;;29.00;90.80;;;;;;5124636;27;20470;-69
2021/06/20 10:30:34;;;;;;;1.20;1.00;;;29.00;90.70;;;;;;5113213;28;20492;-69
2021/06/20 10:33:07;;;;;;;1.80;1.40;;;29.00;90.70;;;;;;5113245;28;20431;-69
2021/06/20 10:35:35;;;;;;;1.90;1.60;;;29.00;90.50;;;;;;5116154;27;20434;-69
2021/06/20 10:38:03;;;;;;;1.50;1.33;;;29.00;90.30;;;;;;5112816;28;20454;-69
2021/06/20 10:40:32;;;;;;;2.20;1.20;;;29.00;90.10;;;;;;5118434;27;20448;-69
2021/06/20 10:43:12;;;;;;;1.30;1.10;;;29.00;89.70;;;;;;5124272;27;20487;-69
2021/06/20 10:45:40;;;;;;;2.33;1.00;;;29.00;89.90;;;;;;5119737;27;20453;-69
2021/06/20 10:48:18;;;;;;;5.00;1.40;;;28.90;88.80;;;;;;5117731;27;20836;-70
2021/06/20 10:50:47;;;;;;;1.77;1.37;;;29.00;89.30;;;;;;5118944;27;20438;-69
2021/06/20 10:53:15;;;;;;;1.47;1.20;;;29.00;89.10;;;;;;5112390;27;20454;-69
2021/06/20 10:55:45;;;;;;;1.83;1.67;;;28.90;89.30;;;;;;5122019;27;20454;-68
2021/06/20 10:58:22;;;;;;;1.30;1.20;;;28.90;89.60;;;;;;5123199;27;20474;-69
2021/06/20 11:00:50;;;;;;;1.40;1.30;;;28.90;89.20;;;;;;5126647;27;20454;-68
2021/06/20 11:03:24;;;;;;;1.73;1.07;;;28.90;88.60;;;;;;5112551;28;20489;-70
2021/06/20 11:05:53;;;;;;;1.40;1.07;;;28.90;88.50;;;;;;5113410;27;20764;-68
2021/06/20 11:08:32;;;;;;;1.47;1.37;;;28.90;88.90;;;;;;5115427;27;20454;-70
2021/06/20 11:11:10;;;;;;;1.80;1.30;;;28.90;89.20;;;;;;5125252;27;20457;-69
2021/06/20 11:13:39;;;;;;;1.90;1.20;;;28.90;89.30;;;;;;5113172;27;20794;-70
2021/06/20 11:16:08;;;;;;;1.70;1.20;;;28.90;89.70;;;;;;5113036;27;20536;-70
2021/06/20 11:18:35;;;;;;;5.55;1.30;;;28.80;89.30;;;;;;5116034;27;20461;-69
2021/06/20 11:21:03;;;;;;;1.30;0.90;;;28.80;89.50;;;;;;5126668;27;20510;-70
2021/06/20 11:23:31;;;;;;;2.47;1.30;;;28.90;89.30;;;;;;5132552;27;20504;-71
2021/06/20 11:26:00;;;;;;;1.50;1.40;;;28.90;88.90;;;;;;5121612;27;20459;-71
2021/06/20 11:28:27;;;;;;;1.65;1.15;;;28.90;88.20;;;;;;5111060;27;20570;-70
2021/06/20 11:31:06;;;;;;;1.20;1.10;;;28.80;87.30;;;;;;5114769;27;20289;-70
2021/06/20 11:33:32;;;;;;;1.50;1.00;;;28.80;87.30;;;;;;5113464;27;20450;-71
2021/06/20 11:35:59;;;;;;;1.50;1.37;;;28.90;87.50;;;;;;5119714;27;20819;-70
2021/06/20 11:38:33;;;;;;;2.70;1.47;;;28.90;87.60;;;;;;5112002;27;20949;-71
2021/06/20 11:41:11;;;;;;;1.13;0.97;;;28.80;87.30;;;;;;5117156;27;20474;-71
2021/06/20 11:43:41;;;;;;;1.67;1.10;;;28.80;87.70;;;;;;5120141;27;20477;-71
2021/06/20 11:46:18;;;;;;;1.57;1.23;;;28.80;87.10;;;;;;5115695;27;20461;-70
2021/06/20 11:48:52;;;;;;;2.07;1.40;;;28.80;87.00;;;;;;5110381;28;20455;-70
2021/06/20 11:51:32;;;;;;;1.20;1.10;;;28.80;87.20;;;;;;5115230;27;20455;-70
2021/06/20 11:54:06;;;;;;;1.30;1.20;;;28.80;86.90;;;;;;5126370;27;20445;-70
2021/06/20 11:56:33;;;;;;;1.53;1.00;;;28.80;87.10;;;;;;5132459;28;20881;-71
2021/06/20 11:59:00;;;;;;;1.40;1.30;;;28.80;86.90;;;;;;5113691;27;20485;-69
2021/06/20 12:01:47;;;;;;;1.60;1.40;;;28.80;87.00;;;;;;5120073;28;20464;-69
2021/06/20 12:04:19;;;;;;;3.67;1.53;;;28.80;86.80;;;;;;5114483;28;20800;-70
2021/06/20 12:06:47;;;;;;;1.55;1.30;;;28.80;87.00;;;;;;5114438;28;20530;-70
2021/06/20 12:09:15;;;;;;;1.37;1.27;;;28.80;86.90;;;;;;5114137;28;20208;-70
2021/06/20 12:11:42;;;;;;;1.10;1.00;;;28.80;86.30;;;;;;5115568;28;20477;-69
2021/06/20 12:14:21;;;;;;;1.20;1.10;;;28.80;85.70;;;;;;5110855;27;20205;-69
2021/06/20 12:16:50;;;;;;;4.17;1.40;;;28.80;86.30;;;;;;5116567;27;20450;-70
2021/06/20 12:19:18;;;;;;;1.30;1.10;;;28.80;86.00;;;;;;5119537;27;20450;-69
2021/06/20 12:21:46;;;;;;;2.42;2.08;;;28.80;86.20;;;;;;5120601;27;20460;-70
2021/06/20 12:24:14;;;;;;;1.63;1.17;;;28.80;86.40;;;;;;5122329;27;20228;-69
2021/06/20 12:26:49;;;;;;;3.20;1.20;;;28.80;86.20;;;;;;5121395;27;20454;-69
2021/06/20 12:29:16;;;;;;;1.20;1.10;;;28.80;85.80;;;;;;5120945;27;20588;-70
2021/06/20 12:31:59;;;;;;;1.60;1.40;;;28.80;85.70;;;;;;5124324;27;20464;-71
2021/06/20 12:34:26;;;;;;;2.17;1.17;;;28.80;86.10;;;;;;5121872;27;20195;-69
2021/06/20 12:37:01;;;;;;;1.30;1.20;;;28.80;86.10;;;;;;5122853;27;20459;-69
2021/06/20 12:39:40;;;;;;;2.35;1.10;;;28.80;86.20;;;;;;5116620;27;20465;-70
2021/06/20 12:42:07;;;;;;;1.60;1.10;;;28.80;85.90;;;;;;5129084;27;20751;-70
2021/06/20 12:44:39;;;;;;;2.33;1.20;;;28.90;86.40;;;;;;5118395;27;20481;-70
2021/06/20 12:47:07;;;;;;;1.33;1.10;;;28.80;86.40;;;;;;5117620;27;20442;-70
2021/06/20 12:49:34;;;;;;;1.03;0.90;;;28.80;85.80;;;;;;5123727;27;20466;-69
2021/06/20 12:52:03;;;;;;;1.10;1.00;;;28.80;86.00;;;;;;5114128;28;20474;-69
2021/06/20 12:54:39;;;;;;;1.30;1.00;;;28.80;86.10;;;;;;5126202;27;20454;-70